createdAt,value
2022-08-19T00:08:42.838Z,2.00
2022-08-19T00:18:45.607Z,2.35
2022-08-19T00:28:48.771Z,2.12
2022-08-19T00:38:54.236Z,1.83
2022-08-19T00:48:58.884Z,2.20
2022-08-19T00:59:03.351Z,1.80
2022-08-19T01:09:07.050Z,1.55
2022-08-19T01:19:26.575Z,1.55
2022-08-19T01:29:30.481Z,1.92
2022-08-19T01:39:33.514Z,2.10
2022-08-19T01:49:36.435Z,1.67
2022-08-19T01:59:41.360Z,1.60
2022-08-19T02:09:43.802Z,2.03
2022-08-19T02:19:46.127Z,2.20
2022-08-19T02:29:51.022Z,3.35
2022-08-19T02:39:53.652Z,1.77
2022-08-19T02:49:56.115Z,1.73
2022-08-19T02:59:58.858Z,2.47
2022-08-19T03:10:01.184Z,3.03
2022-08-19T03:20:04.711Z,2.53
2022-08-19T03:30:08.168Z,2.62
2022-08-19T03:40:14.636Z,2.42
2022-08-19T03:50:20.784Z,2.17
2022-08-19T04:00:23.431Z,2.12
2022-08-19T04:10:26.354Z,2.42
2022-08-19T04:20:28.910Z,2.33
2022-08-19T04:30:31.476Z,2.70
2022-08-19T04:40:52.930Z,3.05
2022-08-19T04:51:00.542Z,2.53
2022-08-19T05:01:03.631Z,2.80
2022-08-19T05:11:16.717Z,2.43
2022-08-19T05:21:40.830Z,2.70
2022-08-19T05:31:45.487Z,2.65
2022-08-19T05:41:53.919Z,3.78
2022-08-19T05:51:59.753Z,3.95
2022-08-19T06:02:05.409Z,4.15
2022-08-19T06:12:10.840Z,3.78
2022-08-19T06:22:19.202Z,4.35
2022-08-19T06:32:26.616Z,4.12
2022-08-19T06:42:34.521Z,4.87
2022-08-19T06:52:42.604Z,4.35
2022-08-19T07:02:52.439Z,4.47
2022-08-19T07:13:00.526Z,4.65
2022-08-19T07:23:33.806Z,5.35
2022-08-19T07:34:43.246Z,5.57
2022-08-19T07:44:50.448Z,5.05
2022-08-19T07:54:57.747Z,5.30
2022-08-19T08:05:20.340Z,5.05
2022-08-19T08:15:35.681Z,4.93
2022-08-19T08:26:00.007Z,5.03
2022-08-19T08:36:07.376Z,5.15
2022-08-19T08:46:42.446Z,5.60
2022-08-19T08:56:54.841Z,7.32
2022-08-19T09:07:49.933Z,6.68
2022-08-19T09:17:58.479Z,7.18
2022-08-19T09:28:15.526Z,8.50
2022-08-19T09:38:43.624Z,9.00
2022-08-19T09:48:51.098Z,9.20
2022-08-19T09:59:06.397Z,10.10
2022-08-19T10:09:33.989Z,8.88
2022-08-19T10:19:52.685Z,10.02
2022-08-19T10:30:10.027Z,9.48
2022-08-19T10:40:17.408Z,10.55
2022-08-19T10:50:41.054Z,11.77
2022-08-19T11:01:04.312Z,11.32
2022-08-19T11:11:17.411Z,11.43
2022-08-19T11:21:28.400Z,12.23
2022-08-19T11:31:35.004Z,12.77
2022-08-19T11:41:39.664Z,12.18
2022-08-19T11:51:46.120Z,12.75
2022-08-19T12:01:54.531Z,12.15
2022-08-19T12:12:02.680Z,13.23
2022-08-19T12:22:09.242Z,12.60
2022-08-19T12:32:12.440Z,14.38
2022-08-19T12:42:21.204Z,12.70
2022-08-19T12:52:28.424Z,12.65
2022-08-19T13:02:38.470Z,13.55
2022-08-19T13:12:46.371Z,14.20
2022-08-19T13:22:52.769Z,14.30
2022-08-19T13:33:16.006Z,14.35
2022-08-19T13:43:24.078Z,12.40
2022-08-19T13:53:28.084Z,13.35
2022-08-19T14:03:33.168Z,12.88
2022-08-19T14:13:36.902Z,11.32
2022-08-19T14:23:40.598Z,15.52
2022-08-19T14:33:44.560Z,12.23
2022-08-19T14:43:49.664Z,12.07
2022-08-19T14:53:54.768Z,9.65
2022-08-19T15:03:58.409Z,7.18
2022-08-19T15:14:02.801Z,7.40
2022-08-19T15:24:06.725Z,7.57
2022-08-19T15:34:09.773Z,7.78
2022-08-19T15:44:19.064Z,7.37
2022-08-19T15:54:23.354Z,8.52
2022-08-19T16:04:45.440Z,8.52
2022-08-19T16:14:50.153Z,8.40
2022-08-19T16:24:53.244Z,9.20
2022-08-19T16:34:56.245Z,8.27
2022-08-19T16:45:01.285Z,8.63
2022-08-19T16:55:06.790Z,8.90
2022-08-19T17:05:11.517Z,9.95
2022-08-19T17:15:14.735Z,10.90
2022-08-19T17:25:19.005Z,10.40
2022-08-19T17:35:24.448Z,9.75
2022-08-19T17:45:28.737Z,9.60
2022-08-19T17:55:31.949Z,9.23
2022-08-19T18:05:41.553Z,8.60
2022-08-19T18:15:46.340Z,9.57
2022-08-19T18:25:50.224Z,10.18
2022-08-19T18:35:54.378Z,9.93
2022-08-19T18:46:16.091Z,10.90
2022-08-19T18:56:20.941Z,10.05
2022-08-19T19:06:30.968Z,10.10
2022-08-19T19:16:33.921Z,9.32
2022-08-19T19:26:37.566Z,9.40
2022-08-19T19:36:41.195Z,10.38
2022-08-19T19:46:45.392Z,9.90
2022-08-19T19:56:51.048Z,9.38
2022-08-19T20:06:54.034Z,8.43
2022-08-19T20:16:58.518Z,8.60
2022-08-19T20:27:03.151Z,7.80
2022-08-19T20:37:06.180Z,7.40
2022-08-19T20:47:09.018Z,7.57
2022-08-19T20:57:11.764Z,6.28
2022-08-19T21:07:15.878Z,5.62
2022-08-19T21:17:18.938Z,4.45
2022-08-19T21:27:23.079Z,4.07
2022-08-19T21:37:26.330Z,4.30
2022-08-19T21:47:29.167Z,3.70
2022-08-19T21:57:31.805Z,3.20
2022-08-19T22:07:34.373Z,3.83
2022-08-19T22:17:37.236Z,3.40
2022-08-19T22:27:40.723Z,3.10
2022-08-19T22:37:44.052Z,2.97
2022-08-19T22:47:47.040Z,2.93
2022-08-19T22:57:49.767Z,2.33
2022-08-19T23:07:53.046Z,2.97
2022-08-19T23:17:58.538Z,3.10
2022-08-19T23:28:20.323Z,2.42
2022-08-19T23:38:24.154Z,2.60
2022-08-19T23:48:28.330Z,3.12
2022-08-19T23:58:32.479Z,2.65
